sensor_id;sensor_type;location;lat;lon;timestamp;P1;durP1;ratioP1;P2;durP2;ratioP2
6941;SDS011;3510;43.200;27.920;2023-07-22T04:04:14;7.47;;;6.85;;
6941;SDS011;3510;43.200;27.920;2023-07-22T04:06:40;8.68;;;7.43;;
6941;SDS011;3510;43.200;27.920;2023-07-22T04:14:00;10.23;;;7.30;;
6941;SDS011;3510;43.200;27.920;2023-07-22T04:16:28;9.30;;;8.38;;
6941;SDS011;3510;43.200;27.920;2023-07-22T04:18:56;7.65;;;7.05;;
6941;SDS011;3510;43.200;27.920;2023-07-22T04:21:25;12.32;;;8.18;;
6941;SDS011;3510;43.200;27.920;2023-07-22T04:23:52;7.93;;;7.15;;
6941;SDS011;3510;43.200;27.920;2023-07-22T04:26:19;8.82;;;8.10;;
6941;SDS011;3510;43.200;27.920;2023-07-22T04:28:46;7.80;;;7.18;;
6941;SDS011;3510;43.200;27.920;2023-07-22T04:31:14;8.57;;;6.60;;
6941;SDS011;3510;43.200;27.920;2023-07-22T04:33:42;7.60;;;7.00;;
6941;SDS011;3510;43.200;27.920;2023-07-22T04:36:09;8.77;;;7.85;;
6941;SDS011;3510;43.200;27.920;2023-07-22T04:38:35;7.30;;;6.60;;
6941;SDS011;3510;43.200;27.920;2023-07-22T04:41:02;8.68;;;7.25;;
6941;SDS011;3510;43.200;27.920;2023-07-22T04:43:30;7.93;;;6.60;;
6941;SDS011;3510;43.200;27.920;2023-07-22T04:45:57;7.77;;;6.90;;
6941;SDS011;3510;43.200;27.920;2023-07-22T04:48:26;6.53;;;5.93;;
6941;SDS011;3510;43.200;27.920;2023-07-22T04:50:54;9.73;;;6.82;;
6941;SDS011;3510;43.200;27.920;2023-07-22T04:53:21;7.63;;;7.03;;
6941;SDS011;3510;43.200;27.920;2023-07-22T04:55:48;8.02;;;6.25;;
6941;SDS011;3510;43.200;27.920;2023-07-22T04:58:14;10.15;;;5.90;;
6941;SDS011;3510;43.200;27.920;2023-07-22T05:00:42;6.15;;;5.57;;
6941;SDS011;3510;43.200;27.920;2023-07-22T05:03:11;6.15;;;5.75;;
6941;SDS011;3510;43.200;27.920;2023-07-22T05:05:39;8.93;;;5.88;;
6941;SDS011;3510;43.200;27.920;2023-07-22T05:08:07;7.88;;;5.10;;
6941;SDS011;3510;43.200;27.920;2023-07-22T05:10:34;8.35;;;5.72;;
6941;SDS011;3510;43.200;27.920;2023-07-22T05:13:00;6.20;;;5.53;;
6941;SDS011;3510;43.200;27.920;2023-07-22T05:15:27;5.72;;;5.32;;
6941;SDS011;3510;43.200;27.920;2023-07-22T05:17:54;6.75;;;5.50;;
6941;SDS011;3510;43.200;27.920;2023-07-22T05:20:21;5.97;;;5.53;;
6941;SDS011;3510;43.200;27.920;2023-07-22T05:22:48;7.93;;;5.60;;
6941;SDS011;3510;43.200;27.920;2023-07-22T05:25:16;6.32;;;5.75;;
6941;SDS011;3510;43.200;27.920;2023-07-22T05:27:43;5.40;;;5.00;;
6941;SDS011;3510;43.200;27.920;2023-07-22T05:30:09;6.35;;;5.85;;
6941;SDS011;3510;43.200;27.920;2023-07-22T05:32:36;5.32;;;4.82;;
6941;SDS011;3510;43.200;27.920;2023-07-22T05:35:03;5.53;;;5.15;;
6941;SDS011;3510;43.200;27.920;2023-07-22T05:37:32;7.38;;;5.60;;
6941;SDS011;3510;43.200;27.920;2023-07-22T05:39:59;6.07;;;5.65;;
6941;SDS011;3510;43.200;27.920;2023-07-22T05:42:27;6.68;;;6.03;;
6941;SDS011;3510;43.200;27.920;2023-07-22T05:44:55;6.55;;;5.75;;
6941;SDS011;3510;43.200;27.920;2023-07-22T05:47:23;6.68;;;6.10;;
6941;SDS011;3510;43.200;27.920;2023-07-22T05:49:50;6.72;;;6.15;;
6941;SDS011;3510;43.200;27.920;2023-07-22T05:52:17;6.93;;;5.82;;
6941;SDS011;3510;43.200;27.920;2023-07-22T05:54:44;8.13;;;5.63;;
6941;SDS011;3510;43.200;27.920;2023-07-22T05:57:11;7.15;;;6.15;;
6941;SDS011;3510;43.200;27.920;2023-07-22T05:59:38;5.95;;;5.40;;
6941;SDS011;3510;43.200;27.920;2023-07-22T06:02:05;5.85;;;5.35;;
6941;SDS011;3510;43.200;27.920;2023-07-22T06:11:53;6.40;;;5.50;;
6941;SDS011;3510;43.200;27.920;2023-07-22T06:14:20;5.72;;;5.22;;
6941;SDS011;3510;43.200;27.920;2023-07-22T06:16:48;9.05;;;6.15;;
6941;SDS011;3510;43.200;27.920;2023-07-22T06:19:15;6.07;;;5.47;;
6941;SDS011;3510;43.200;27.920;2023-07-22T06:21:42;6.45;;;5.95;;
6941;SDS011;3510;43.200;27.920;2023-07-22T06:24:08;6.40;;;5.90;;
6941;SDS011;3510;43.200;27.920;2023-07-22T06:26:35;7.30;;;5.53;;
6941;SDS011;3510;43.200;27.920;2023-07-22T06:29:02;5.63;;;5.22;;
6941;SDS011;3510;43.200;27.920;2023-07-22T06:31:29;7.00;;;6.25;;
6941;SDS011;3510;43.200;27.920;2023-07-22T06:33:57;6.40;;;5.82;;
6941;SDS011;3510;43.200;27.920;2023-07-22T06:36:24;6.65;;;5.85;;
6941;SDS011;3510;43.200;27.920;2023-07-22T06:38:51;10.13;;;6.38;;
6941;SDS011;3510;43.200;27.920;2023-07-22T06:41:19;6.13;;;5.63;;
6941;SDS011;3510;43.200;27.920;2023-07-22T06:43:49;5.63;;;5.22;;
6941;SDS011;3510;43.200;27.920;2023-07-22T06:46:15;5.75;;;5.22;;
6941;SDS011;3510;43.200;27.920;2023-07-22T06:48:48;23.67;;;9.20;;
6941;SDS011;3510;43.200;27.920;2023-07-22T06:51:16;7.13;;;5.35;;
6941;SDS011;3510;43.200;27.920;2023-07-22T06:53:42;5.85;;;5.32;;
6941;SDS011;3510;43.200;27.920;2023-07-22T06:56:09;5.80;;;5.50;;
6941;SDS011;3510;43.200;27.920;2023-07-22T06:58:37;7.88;;;6.00;;
6941;SDS011;3510;43.200;27.920;2023-07-22T07:03:30;8.38;;;6.15;;
6941;SDS011;3510;43.200;27.920;2023-07-22T07:08:25;6.80;;;5.88;;
6941;SDS011;3510;43.200;27.920;2023-07-22T07:10:51;10.98;;;6.53;;
6941;SDS011;3510;43.200;27.920;2023-07-22T07:13:18;6.80;;;6.20;;
6941;SDS011;3510;43.200;27.920;2023-07-22T07:15:46;6.55;;;5.18;;
6941;SDS011;3510;43.200;27.920;2023-07-22T07:18:14;6.55;;;6.05;;
6941;SDS011;3510;43.200;27.920;2023-07-22T07:20:41;6.57;;;5.95;;
6941;SDS011;3510;43.200;27.920;2023-07-22T07:23:08;6.90;;;6.28;;
6941;SDS011;3510;43.200;27.920;2023-07-22T07:25:36;6.95;;;6.25;;
6941;SDS011;3510;43.200;27.920;2023-07-22T07:28:03;6.32;;;5.72;;
6941;SDS011;3510;43.200;27.920;2023-07-22T07:30:30;5.85;;;5.43;;
6941;SDS011;3510;43.200;27.920;2023-07-22T07:32:57;7.47;;;6.35;;
6941;SDS011;3510;43.200;27.920;2023-07-22T07:35:24;9.05;;;6.68;;
6941;SDS011;3510;43.200;27.920;2023-07-22T07:37:50;7.63;;;7.03;;
6941;SDS011;3510;43.200;27.920;2023-07-22T07:40:17;7.30;;;6.63;;
6941;SDS011;3510;43.200;27.920;2023-07-22T07:42:45;7.35;;;6.65;;
6941;SDS011;3510;43.200;27.920;2023-07-22T07:45:12;6.45;;;5.97;;
6941;SDS011;3510;43.200;27.920;2023-07-22T07:47:39;6.72;;;6.22;;
6941;SDS011;3510;43.200;27.920;2023-07-22T07:50:06;7.68;;;5.43;;
6941;SDS011;3510;43.200;27.920;2023-07-22T07:52:33;7.53;;;6.90;;
6941;SDS011;3510;43.200;27.920;2023-07-22T07:55:00;5.07;;;4.75;;
6941;SDS011;3510;43.200;27.920;2023-07-22T07:57:26;7.28;;;6.57;;
6941;SDS011;3510;43.200;27.920;2023-07-22T07:59:54;6.80;;;5.80;;
6941;SDS011;3510;43.200;27.920;2023-07-22T08:02:21;10.52;;;6.13;;
6941;SDS011;3510;43.200;27.920;2023-07-22T08:04:48;6.28;;;5.63;;
6941;SDS011;3510;43.200;27.920;2023-07-22T08:07:15;7.50;;;6.55;;
6941;SDS011;3510;43.200;27.920;2023-07-22T08:09:43;6.22;;;5.68;;
6941;SDS011;3510;43.200;27.920;2023-07-22T08:12:13;6.30;;;5.70;;
6941;SDS011;3510;43.200;27.920;2023-07-22T08:14:40;7.82;;;5.80;;
6941;SDS011;3510;43.200;27.920;2023-07-22T08:17:08;5.95;;;4.72;;
6941;SDS011;3510;43.200;27.920;2023-07-22T08:19:35;5.53;;;5.13;;
6941;SDS011;3510;43.200;27.920;2023-07-22T08:22:02;6.90;;;5.07;;
6941;SDS011;3510;43.200;27.920;2023-07-22T08:24:29;9.10;;;7.60;;
6941;SDS011;3510;43.200;27.920;2023-07-22T08:26:55;9.00;;;5.20;;
6941;SDS011;3510;43.200;27.920;2023-07-22T08:29:22;5.32;;;4.95;;
6941;SDS011;3510;43.200;27.920;2023-07-22T08:31:49;6.30;;;5.80;;
6941;SDS011;3510;43.200;27.920;2023-07-22T08:34:17;6.40;;;5.88;;
6941;SDS011;3510;43.200;27.920;2023-07-22T08:36:46;6.38;;;5.20;;
6941;SDS011;3510;43.200;27.920;2023-07-22T08:39:14;8.45;;;5.57;;
6941;SDS011;3510;43.200;27.920;2023-07-22T08:41:41;9.40;;;5.95;;
6941;SDS011;3510;43.200;27.920;2023-07-22T08:44:14;5.82;;;5.40;;
6941;SDS011;3510;43.200;27.920;2023-07-22T08:46:45;6.28;;;5.65;;
6941;SDS011;3510;43.200;27.920;2023-07-22T08:49:13;6.22;;;5.70;;
6941;SDS011;3510;43.200;27.920;2023-07-22T08:51:42;11.98;;;5.53;;
6941;SDS011;3510;43.200;27.920;2023-07-22T08:54:11;5.72;;;5.15;;
6941;SDS011;3510;43.200;27.920;2023-07-22T08:56:39;5.55;;;5.05;;
6941;SDS011;3510;43.200;27.920;2023-07-22T08:59:06;6.38;;;5.18;;
6941;SDS011;3510;43.200;27.920;2023-07-22T09:01:32;8.70;;;5.45;;
6941;SDS011;3510;43.200;27.920;2023-07-22T09:04:00;5.60;;;5.30;;
6941;SDS011;3510;43.200;27.920;2023-07-22T09:06:28;6.88;;;6.20;;
6941;SDS011;3510;43.200;27.920;2023-07-22T09:08:56;8.85;;;5.55;;
6941;SDS011;3510;43.200;27.920;2023-07-22T09:11:24;5.35;;;5.00;;
6941;SDS011;3510;43.200;27.920;2023-07-22T09:13:51;6.07;;;5.55;;
6941;SDS011;3510;43.200;27.920;2023-07-22T09:16:20;13.73;;;5.70;;
6941;SDS011;3510;43.200;27.920;2023-07-22T09:18:47;5.30;;;4.90;;
6941;SDS011;3510;43.200;27.920;2023-07-22T09:21:14;6.03;;;5.53;;
6941;SDS011;3510;43.200;27.920;2023-07-22T09:23:40;6.72;;;5.55;;
6941;SDS011;3510;43.200;27.920;2023-07-22T09:26:10;5.65;;;5.25;;
6941;SDS011;3510;43.200;27.920;2023-07-22T09:31:20;5.80;;;5.25;;
6941;SDS011;3510;43.200;27.920;2023-07-22T09:33:48;5.82;;;5.30;;
6941;SDS011;3510;43.200;27.920;2023-07-22T09:36:19;5.30;;;5.00;;
6941;SDS011;3510;43.200;27.920;2023-07-22T09:38:58;7.10;;;6.22;;
6941;SDS011;3510;43.200;27.920;2023-07-22T09:41:29;5.97;;;5.38;;
6941;SDS011;3510;43.200;27.920;2023-07-22T09:43:56;6.38;;;5.72;;
6941;SDS011;3510;43.200;27.920;2023-07-22T09:46:22;6.35;;;5.78;;
6941;SDS011;3510;43.200;27.920;2023-07-22T09:49:00;5.70;;;5.40;;
6941;SDS011;3510;43.200;27.920;2023-07-22T09:51:33;6.72;;;6.10;;
6941;SDS011;3510;43.200;27.920;2023-07-22T09:54:01;7.03;;;6.35;;
6941;SDS011;3510;43.200;27.920;2023-07-22T09:56:30;7.82;;;6.93;;
6941;SDS011;3510;43.200;27.920;2023-07-22T09:58:58;9.57;;;6.00;;
6941;SDS011;3510;43.200;27.920;2023-07-22T10:01:25;8.35;;;5.63;;
6941;SDS011;3510;43.200;27.920;2023-07-22T10:03:53;11.20;;;6.05;;
6941;SDS011;3510;43.200;27.920;2023-07-22T10:06:21;5.70;;;5.18;;
6941;SDS011;3510;43.200;27.920;2023-07-22T10:08:50;5.63;;;5.15;;
6941;SDS011;3510;43.200;27.920;2023-07-22T10:11:18;8.02;;;5.78;;
6941;SDS011;3510;43.200;27.920;2023-07-22T10:13:46;5.32;;;4.85;;
6941;SDS011;3510;43.200;27.920;2023-07-22T10:16:13;9.38;;;5.72;;
6941;SDS011;3510;43.200;27.920;2023-07-22T10:18:42;9.02;;;5.13;;
6941;SDS011;3510;43.200;27.920;2023-07-22T10:21:10;7.07;;;5.60;;
6941;SDS011;3510;43.200;27.920;2023-07-22T10:23:37;5.85;;;5.43;;
6941;SDS011;3510;43.200;27.920;2023-07-22T10:26:04;6.18;;;5.70;;
6941;SDS011;3510;43.200;27.920;2023-07-22T10:28:32;6.85;;;5.40;;
6941;SDS011;3510;43.200;27.920;2023-07-22T10:31:00;6.47;;;6.07;;
6941;SDS011;3510;43.200;27.920;2023-07-22T10:33:27;6.68;;;5.72;;
6941;SDS011;3510;43.200;27.920;2023-07-22T10:36:03;5.35;;;4.95;;
6941;SDS011;3510;43.200;27.920;2023-07-22T10:38:31;6.65;;;5.38;;
6941;SDS011;3510;43.200;27.920;2023-07-22T10:40:58;7.30;;;5.13;;
6941;SDS011;3510;43.200;27.920;2023-07-22T10:43:26;9.52;;;5.72;;
6941;SDS011;3510;43.200;27.920;2023-07-22T10:45:54;5.88;;;5.28;;
6941;SDS011;3510;43.200;27.920;2023-07-22T10:48:25;5.53;;;5.05;;
6941;SDS011;3510;43.200;27.920;2023-07-22T10:50:54;5.55;;;4.75;;
6941;SDS011;3510;43.200;27.920;2023-07-22T10:53:28;5.85;;;5.30;;
6941;SDS011;3510;43.200;27.920;2023-07-22T10:56:03;6.28;;;5.20;;
6941;SDS011;3510;43.200;27.920;2023-07-22T10:58:33;8.35;;;5.25;;
6941;SDS011;3510;43.200;27.920;2023-07-22T11:06:32;5.05;;;4.70;;
6941;SDS011;3510;43.200;27.920;2023-07-22T11:08:59;5.22;;;4.72;;
6941;SDS011;3510;43.200;27.920;2023-07-22T11:11:34;10.43;;;5.10;;
6941;SDS011;3510;43.200;27.920;2023-07-22T11:16:41;5.47;;;4.82;;
6941;SDS011;3510;43.200;27.920;2023-07-22T11:19:12;7.97;;;5.20;;
6941;SDS011;3510;43.200;27.920;2023-07-22T11:21:39;8.85;;;5.65;;
6941;SDS011;3510;43.200;27.920;2023-07-22T11:24:06;6.40;;;5.88;;
6941;SDS011;3510;43.200;27.920;2023-07-22T11:26:33;6.70;;;5.80;;
6941;SDS011;3510;43.200;27.920;2023-07-22T11:29:00;4.97;;;4.57;;
6941;SDS011;3510;43.200;27.920;2023-07-22T11:31:31;7.57;;;5.00;;
6941;SDS011;3510;43.200;27.920;2023-07-22T11:33:58;8.85;;;5.55;;
6941;SDS011;3510;43.200;27.920;2023-07-22T11:36:26;7.47;;;4.95;;
6941;SDS011;3510;43.200;27.920;2023-07-22T11:38:53;5.70;;;5.03;;
6941;SDS011;3510;43.200;27.920;2023-07-22T11:41:20;5.50;;;5.15;;
6941;SDS011;3510;43.200;27.920;2023-07-22T11:43:47;5.40;;;5.05;;
6941;SDS011;3510;43.200;27.920;2023-07-22T11:46:14;5.13;;;4.72;;
6941;SDS011;3510;43.200;27.920;2023-07-22T11:48:49;6.55;;;5.45;;
6941;SDS011;3510;43.200;27.920;2023-07-22T11:51:17;21.95;;;6.30;;
6941;SDS011;3510;43.200;27.920;2023-07-22T11:53:47;14.40;;;7.10;;
6941;SDS011;3510;43.200;27.920;2023-07-22T11:56:18;7.75;;;5.15;;
6941;SDS011;3510;43.200;27.920;2023-07-22T11:58:48;7.47;;;5.22;;
6941;SDS011;3510;43.200;27.920;2023-07-22T12:01:16;9.25;;;4.80;;
6941;SDS011;3510;43.200;27.920;2023-07-22T12:03:43;5.53;;;5.03;;
6941;SDS011;3510;43.200;27.920;2023-07-22T12:06:09;11.70;;;7.60;;
6941;SDS011;3510;43.200;27.920;2023-07-22T12:08:42;5.35;;;4.82;;
6941;SDS011;3510;43.200;27.920;2023-07-22T12:11:20;6.45;;;4.82;;
6941;SDS011;3510;43.200;27.920;2023-07-22T12:13:49;5.88;;;4.85;;
6941;SDS011;3510;43.200;27.920;2023-07-22T12:16:30;5.00;;;4.70;;
6941;SDS011;3510;43.200;27.920;2023-07-22T12:18:57;8.70;;;5.15;;
6941;SDS011;3510;43.200;27.920;2023-07-22T12:21:23;5.65;;;4.93;;
6941;SDS011;3510;43.200;27.920;2023-07-22T12:23:50;5.18;;;4.47;;
6941;SDS011;3510;43.200;27.920;2023-07-22T12:26:20;6.90;;;5.00;;
6941;SDS011;3510;43.200;27.920;2023-07-22T12:28:48;5.40;;;4.70;;
6941;SDS011;3510;43.200;27.920;2023-07-22T12:31:14;6.20;;;5.07;;
6941;SDS011;3510;43.200;27.920;2023-07-22T12:33:41;8.15;;;5.60;;
6941;SDS011;3510;43.200;27.920;2023-07-22T12:36:08;5.05;;;4.68;;
6941;SDS011;3510;43.200;27.920;2023-07-22T12:38:35;5.15;;;4.70;;
6941;SDS011;3510;43.200;27.920;2023-07-22T12:41:02;9.40;;;5.32;;
6941;SDS011;3510;43.200;27.920;2023-07-22T12:43:31;5.20;;;4.70;;
6941;SDS011;3510;43.200;27.920;2023-07-22T12:45:58;6.15;;;5.53;;
6941;SDS011;3510;43.200;27.920;2023-07-22T12:48:24;5.97;;;5.60;;
6941;SDS011;3510;43.200;27.920;2023-07-22T12:50:51;5.05;;;4.60;;
6941;SDS011;3510;43.200;27.920;2023-07-22T12:53:19;5.72;;;5.28;;
6941;SDS011;3510;43.200;27.920;2023-07-22T12:55:46;5.97;;;5.35;;
6941;SDS011;3510;43.200;27.920;2023-07-22T12:58:13;8.63;;;5.38;;
6941;SDS011;3510;43.200;27.920;2023-07-22T13:00:41;5.07;;;4.47;;
6941;SDS011;3510;43.200;27.920;2023-07-22T13:03:08;5.20;;;4.80;;
6941;SDS011;3510;43.200;27.920;2023-07-22T13:05:34;7.65;;;4.18;;
6941;SDS011;3510;43.200;27.920;2023-07-22T13:08:01;6.75;;;4.32;;
6941;SDS011;3510;43.200;27.920;2023-07-22T13:10:29;5.38;;;4.88;;
6941;SDS011;3510;43.200;27.920;2023-07-22T13:12:57;6.95;;;5.18;;
6941;SDS011;3510;43.200;27.920;2023-07-22T13:15:24;6.05;;;5.50;;
6941;SDS011;3510;43.200;27.920;2023-07-22T13:17:53;6.85;;;4.88;;
6941;SDS011;3510;43.200;27.920;2023-07-22T13:20:21;10.10;;;5.93;;
6941;SDS011;3510;43.200;27.920;2023-07-22T13:22:48;4.90;;;4.50;;
6941;SDS011;3510;43.200;27.920;2023-07-22T13:25:15;5.30;;;4.82;;
6941;SDS011;3510;43.200;27.920;2023-07-22T13:27:42;6.07;;;5.25;;
6941;SDS011;3510;43.200;27.920;2023-07-22T13:30:08;6.32;;;5.07;;
6941;SDS011;3510;43.200;27.920;2023-07-22T13:32:35;7.45;;;6.78;;
6941;SDS011;3510;43.200;27.920;2023-07-22T13:35:04;8.07;;;6.95;;
6941;SDS011;3510;43.200;27.920;2023-07-22T13:37:31;5.45;;;4.82;;
6941;SDS011;3510;43.200;27.920;2023-07-22T13:39:58;9.25;;;5.03;;
6941;SDS011;3510;43.200;27.920;2023-07-22T13:42:25;5.75;;;4.88;;
6941;SDS011;3510;43.200;27.920;2023-07-22T13:44:52;5.07;;;4.70;;
6941;SDS011;3510;43.200;27.920;2023-07-22T13:47:18;6.38;;;5.18;;
6941;SDS011;3510;43.200;27.920;2023-07-22T13:49:45;5.72;;;5.07;;
6941;SDS011;3510;43.200;27.920;2023-07-22T13:52:13;5.57;;;5.05;;
6941;SDS011;3510;43.200;27.920;2023-07-22T13:54:40;5.75;;;5.35;;
6941;SDS011;3510;43.200;27.920;2023-07-22T13:57:06;5.65;;;5.15;;
6941;SDS011;3510;43.200;27.920;2023-07-22T13:59:34;4.70;;;4.30;;
6941;SDS011;3510;43.200;27.920;2023-07-22T14:02:00;5.38;;;4.43;;
6941;SDS011;3510;43.200;27.920;2023-07-22T14:04:28;4.80;;;4.30;;
6941;SDS011;3510;43.200;27.920;2023-07-22T14:06:54;4.75;;;4.38;;
6941;SDS011;3510;43.200;27.920;2023-07-22T14:09:23;5.68;;;4.65;;
6941;SDS011;3510;43.200;27.920;2023-07-22T14:11:50;7.38;;;4.30;;
6941;SDS011;3510;43.200;27.920;2023-07-22T14:14:16;10.10;;;4.43;;
6941;SDS011;3510;43.200;27.920;2023-07-22T14:16:43;5.03;;;4.05;;
6941;SDS011;3510;43.200;27.920;2023-07-22T14:19:10;4.10;;;3.75;;
6941;SDS011;3510;43.200;27.920;2023-07-22T14:21:37;5.30;;;4.65;;
6941;SDS011;3510;43.200;27.920;2023-07-22T14:24:03;5.45;;;3.90;;
6941;SDS011;3510;43.200;27.920;2023-07-22T14:26:32;4.25;;;3.95;;
6941;SDS011;3510;43.200;27.920;2023-07-22T14:28:59;8.13;;;4.80;;
6941;SDS011;3510;43.200;27.920;2023-07-22T14:31:25;7.90;;;4.53;;
6941;SDS011;3510;43.200;27.920;2023-07-22T14:33:52;4.45;;;4.15;;
6941;SDS011;3510;43.200;27.920;2023-07-22T14:36:19;4.43;;;4.13;;
6941;SDS011;3510;43.200;27.920;2023-07-22T14:38:46;4.82;;;4.30;;
6941;SDS011;3510;43.200;27.920;2023-07-22T14:41:12;5.07;;;3.75;;
6941;SDS011;3510;43.200;27.920;2023-07-22T14:43:40;5.15;;;4.47;;
6941;SDS011;3510;43.200;27.920;2023-07-22T14:46:09;3.83;;;3.55;;
6941;SDS011;3510;43.200;27.920;2023-07-22T14:48:35;4.82;;;4.43;;
6941;SDS011;3510;43.200;27.920;2023-07-22T14:51:02;4.18;;;3.97;;
6941;SDS011;3510;43.200;27.920;2023-07-22T14:53:29;5.50;;;3.92;;
6941;SDS011;3510;43.200;27.920;2023-07-22T14:55:55;4.20;;;3.90;;
6941;SDS011;3510;43.200;27.920;2023-07-22T14:58:22;4.35;;;4.05;;
6941;SDS011;3510;43.200;27.920;2023-07-22T15:00:50;4.47;;;4.18;;
6941;SDS011;3510;43.200;27.920;2023-07-22T15:03:17;4.07;;;3.63;;
6941;SDS011;3510;43.200;27.920;2023-07-22T15:05:44;10.05;;;4.55;;
6941;SDS011;3510;43.200;27.920;2023-07-22T15:08:10;4.90;;;4.50;;
6941;SDS011;3510;43.200;27.920;2023-07-22T15:10:37;4.88;;;4.47;;
6941;SDS011;3510;43.200;27.920;2023-07-22T15:13:03;7.15;;;4.22;;
6941;SDS011;3510;43.200;27.920;2023-07-22T15:15:30;7.20;;;5.32;;
6941;SDS011;3510;43.200;27.920;2023-07-22T15:17:58;5.88;;;5.45;;
6941;SDS011;3510;43.200;27.920;2023-07-22T15:20:25;8.82;;;4.68;;
6941;SDS011;3510;43.200;27.920;2023-07-22T15:22:52;5.00;;;4.60;;
6941;SDS011;3510;43.200;27.920;2023-07-22T15:25:19;4.72;;;4.40;;
6941;SDS011;3510;43.200;27.920;2023-07-22T15:27:45;4.50;;;4.10;;
6941;SDS011;3510;43.200;27.920;2023-07-22T15:30:12;6.03;;;4.70;;
6941;SDS011;3510;43.200;27.920;2023-07-22T15:32:39;6.30;;;4.90;;
6941;SDS011;3510;43.200;27.920;2023-07-22T15:35:07;5.35;;;5.00;;
6941;SDS011;3510;43.200;27.920;2023-07-22T15:37:34;6.53;;;4.32;;
6941;SDS011;3510;43.200;27.920;2023-07-22T15:40:02;5.05;;;4.72;;
6941;SDS011;3510;43.200;27.920;2023-07-22T15:42:28;5.55;;;5.03;;
6941;SDS011;3510;43.200;27.920;2023-07-22T15:44:55;5.22;;;4.72;;
6941;SDS011;3510;43.200;27.920;2023-07-22T15:47:22;4.95;;;4.55;;
6941;SDS011;3510;43.200;27.920;2023-07-22T15:49:48;4.97;;;4.55;;
6941;SDS011;3510;43.200;27.920;2023-07-22T15:52:16;4.68;;;4.13;;
6941;SDS011;3510;43.200;27.920;2023-07-22T15:54:43;6.05;;;5.35;;
6941;SDS011;3510;43.200;27.920;2023-07-22T15:57:10;5.18;;;4.25;;
6941;SDS011;3510;43.200;27.920;2023-07-22T15:59:36;5.35;;;4.93;;
6941;SDS011;3510;43.200;27.920;2023-07-22T16:02:03;6.53;;;5.63;;
6941;SDS011;3510;43.200;27.920;2023-07-22T16:04:30;5.10;;;4.72;;
6941;SDS011;3510;43.200;27.920;2023-07-22T16:06:58;4.60;;;4.22;;
6941;SDS011;3510;43.200;27.920;2023-07-22T16:09:26;5.40;;;4.95;;
6941;SDS011;3510;43.200;27.920;2023-07-22T16:11:53;4.90;;;4.63;;
6941;SDS011;3510;43.200;27.920;2023-07-22T16:14:20;6.70;;;5.88;;
6941;SDS011;3510;43.200;27.920;2023-07-22T16:16:47;6.97;;;5.07;;
6941;SDS011;3510;43.200;27.920;2023-07-22T16:19:14;4.75;;;4.38;;
6941;SDS011;3510;43.200;27.920;2023-07-22T16:21:40;5.85;;;5.35;;
6941;SDS011;3510;43.200;27.920;2023-07-22T16:24:08;5.18;;;4.78;;
6941;SDS011;3510;43.200;27.920;2023-07-22T16:26:36;6.25;;;5.38;;
6941;SDS011;3510;43.200;27.920;2023-07-22T16:29:06;4.60;;;4.30;;
6941;SDS011;3510;43.200;27.920;2023-07-22T16:31:46;6.72;;;5.45;;
6941;SDS011;3510;43.200;27.920;2023-07-22T16:34:27;5.43;;;5.03;;
6941;SDS011;3510;43.200;27.920;2023-07-22T16:36:53;5.05;;;4.65;;
6941;SDS011;3510;43.200;27.920;2023-07-22T16:39:20;5.78;;;5.22;;
6941;SDS011;3510;43.200;27.920;2023-07-22T16:41:49;5.28;;;4.97;;
6941;SDS011;3510;43.200;27.920;2023-07-22T16:44:30;9.60;;;5.22;;
6941;SDS011;3510;43.200;27.920;2023-07-22T16:46:58;5.35;;;5.05;;
6941;SDS011;3510;43.200;27.920;2023-07-22T16:49:26;5.65;;;4.80;;
6941;SDS011;3510;43.200;27.920;2023-07-22T16:52:07;6.22;;;5.72;;
6941;SDS011;3510;43.200;27.920;2023-07-22T16:54:48;6.50;;;5.65;;
6941;SDS011;3510;43.200;27.920;2023-07-22T17:00:13;5.05;;;4.68;;
6941;SDS011;3510;43.200;27.920;2023-07-22T17:02:42;5.65;;;5.18;;
6941;SDS011;3510;43.200;27.920;2023-07-22T17:05:09;8.18;;;5.65;;
6941;SDS011;3510;43.200;27.920;2023-07-22T17:07:50;6.00;;;5.55;;
6941;SDS011;3510;43.200;27.920;2023-07-22T17:10:30;7.05;;;6.43;;
6941;SDS011;3510;43.200;27.920;2023-07-22T17:12:57;6.85;;;6.10;;
6941;SDS011;3510;43.200;27.920;2023-07-22T17:15:25;8.52;;;7.32;;
6941;SDS011;3510;43.200;27.920;2023-07-22T17:17:52;14.40;;;9.90;;
6941;SDS011;3510;43.200;27.920;2023-07-22T17:20:36;10.70;;;8.32;;
6941;SDS011;3510;43.200;27.920;2023-07-22T17:23:03;12.63;;;10.13;;
6941;SDS011;3510;43.200;27.920;2023-07-22T17:25:30;10.13;;;7.85;;
6941;SDS011;3510;43.200;27.920;2023-07-22T17:27:57;8.45;;;7.65;;
6941;SDS011;3510;43.200;27.920;2023-07-22T17:30:25;11.23;;;8.00;;
6941;SDS011;3510;43.200;27.920;2023-07-22T17:32:52;9.00;;;8.20;;
6941;SDS011;3510;43.200;27.920;2023-07-22T17:35:19;9.40;;;7.47;;
6941;SDS011;3510;43.200;27.920;2023-07-22T17:37:46;11.45;;;8.45;;
6941;SDS011;3510;43.200;27.920;2023-07-22T17:40:13;11.60;;;9.82;;
6941;SDS011;3510;43.200;27.920;2023-07-22T17:42:40;17.92;;;11.13;;
6941;SDS011;3510;43.200;27.920;2023-07-22T17:45:08;16.75;;;12.15;;
6941;SDS011;3510;43.200;27.920;2023-07-22T17:52:29;21.90;;;16.77;;
6941;SDS011;3510;43.200;27.920;2023-07-22T17:54:56;26.05;;;17.48;;
6941;SDS011;3510;43.200;27.920;2023-07-22T17:57:22;20.27;;;15.38;;
6941;SDS011;3510;43.200;27.920;2023-07-22T17:59:49;12.00;;;10.90;;
